createdAt,value
2019-01-26T00:04:35.222Z,1.25
2019-01-26T00:09:29.803Z,1.25
2019-01-26T00:14:24.399Z,1.23
2019-01-26T00:19:19.001Z,1.32
2019-01-26T00:24:13.581Z,1.33
2019-01-26T00:29:08.175Z,1.43
2019-01-26T00:34:02.769Z,1.34
2019-01-26T00:38:57.360Z,1.36
2019-01-26T00:43:51.944Z,1.39
2019-01-26T00:48:46.553Z,1.48
2019-01-26T00:53:41.150Z,1.46
2019-01-26T00:58:35.741Z,1.39
2019-01-26T01:03:30.426Z,1.45
2019-01-26T01:08:25.137Z,1.48
2019-01-26T01:13:19.731Z,1.39
2019-01-26T01:18:14.315Z,1.33
2019-01-26T01:23:08.975Z,1.38
2019-01-26T01:28:03.623Z,1.49
2019-01-26T01:32:58.281Z,1.38
2019-01-26T01:37:52.876Z,1.41
2019-01-26T01:42:47.789Z,1.38
2019-01-26T01:47:42.386Z,1.31
2019-01-26T01:52:36.975Z,1.30
2019-01-26T01:57:31.721Z,1.28
2019-01-26T02:02:26.311Z,1.30
2019-01-26T02:07:20.898Z,1.33
2019-01-26T02:12:15.487Z,1.28
2019-01-26T02:17:10.335Z,1.20
2019-01-26T02:22:05.069Z,1.27
2019-01-26T02:26:59.650Z,1.22
2019-01-26T02:31:54.242Z,1.19
2019-01-26T02:36:48.826Z,1.29
2019-01-26T02:41:43.490Z,1.14
2019-01-26T02:46:38.085Z,1.21
2019-01-26T02:51:32.693Z,1.25
2019-01-26T02:56:27.300Z,1.36
2019-01-26T03:01:21.896Z,1.41
2019-01-26T03:06:16.490Z,1.39
2019-01-26T03:11:11.226Z,1.39
2019-01-26T03:16:06.363Z,1.39
2019-01-26T03:21:00.974Z,1.28
2019-01-26T03:25:55.599Z,1.36
2019-01-26T03:30:50.192Z,1.19
2019-01-26T03:35:44.780Z,1.21
2019-01-26T03:40:39.368Z,1.32
2019-01-26T03:45:34.027Z,1.17
2019-01-26T03:50:28.681Z,1.17
2019-01-26T03:55:23.496Z,1.21
2019-01-26T04:00:21.900Z,1.22
2019-01-26T04:05:16.988Z,1.33
2019-01-26T04:10:15.275Z,1.14
2019-01-26T04:15:19.799Z,1.26
2019-01-26T04:20:20.619Z,1.25
2019-01-26T04:25:15.413Z,1.05
2019-01-26T04:30:15.193Z,0.85
2019-01-26T04:35:11.076Z,0.79
2019-01-26T04:40:10.063Z,0.90
2019-01-26T04:45:07.304Z,0.61
2019-01-26T04:50:01.882Z,0.55
2019-01-26T04:54:56.484Z,0.50
2019-01-26T04:59:51.048Z,0.67
2019-01-26T05:04:45.674Z,0.65
2019-01-26T05:09:40.227Z,0.61
2019-01-26T05:14:34.822Z,0.62
2019-01-26T05:19:29.394Z,0.66
2019-01-26T05:24:23.990Z,0.76
2019-01-26T05:29:18.572Z,1.06
2019-01-26T05:34:13.184Z,1.12
2019-01-26T05:39:09.281Z,1.06
2019-01-26T05:44:03.870Z,0.99
2019-01-26T05:48:58.449Z,1.06
2019-01-26T05:53:53.044Z,1.24
2019-01-26T05:58:47.616Z,1.32
2019-01-26T06:03:42.201Z,1.52
2019-01-26T06:08:36.761Z,1.37
2019-01-26T06:13:31.359Z,1.23
2019-01-26T06:18:26.000Z,0.99
2019-01-26T06:23:20.602Z,0.83
2019-01-26T06:28:15.170Z,0.86
2019-01-26T06:33:09.764Z,0.92
2019-01-26T06:38:04.404Z,1.01
2019-01-26T06:42:59.017Z,1.06
2019-01-26T06:47:53.590Z,1.13
2019-01-26T06:52:48.180Z,1.17
2019-01-26T06:57:42.753Z,1.24
2019-01-26T07:02:37.356Z,1.37
2019-01-26T07:07:45.303Z,1.40
2019-01-26T07:12:39.881Z,1.47
2019-01-26T07:17:34.477Z,1.46
2019-01-26T07:22:29.046Z,1.48
2019-01-26T07:27:23.641Z,1.55
2019-01-26T07:32:18.250Z,1.70
2019-01-26T07:37:12.841Z,1.73
2019-01-26T07:42:07.537Z,1.87
2019-01-26T07:47:02.197Z,2.01
2019-01-26T07:51:56.783Z,1.99
2019-01-26T07:56:51.387Z,2.08
2019-01-26T08:01:46.027Z,2.20
2019-01-26T08:06:40.619Z,2.14
2019-01-26T08:11:35.250Z,2.36
2019-01-26T08:16:29.846Z,2.34
2019-01-26T08:21:24.436Z,2.56
2019-01-26T08:26:19.022Z,2.51
2019-01-26T08:31:13.697Z,2.55
2019-01-26T08:36:08.337Z,2.60
2019-01-26T08:41:02.929Z,2.74
2019-01-26T08:45:57.544Z,2.71
2019-01-26T08:50:52.210Z,2.77
2019-01-26T08:55:46.849Z,2.82
2019-01-26T09:00:41.515Z,2.93
2019-01-26T09:05:40.209Z,3.09
2019-01-26T09:10:34.933Z,3.23
2019-01-26T09:15:29.517Z,3.14
2019-01-26T09:20:24.133Z,3.17
2019-01-26T09:25:18.778Z,3.22
2019-01-26T09:30:22.131Z,3.46
2019-01-26T09:35:16.865Z,3.65
2019-01-26T09:40:23.497Z,3.77
2019-01-26T09:45:20.203Z,4.10
2019-01-26T09:50:15.980Z,4.06
2019-01-26T09:55:14.847Z,4.05
2019-01-26T10:00:16.528Z,3.92
2019-01-26T10:05:11.838Z,3.81
2019-01-26T10:10:11.213Z,4.05
2019-01-26T10:15:10.774Z,4.11
2019-01-26T10:20:12.635Z,4.19
2019-01-26T10:25:11.405Z,4.17
2019-01-26T10:30:10.664Z,3.85
2019-01-26T10:35:07.365Z,4.02
2019-01-26T10:40:02.832Z,4.14
2019-01-26T10:44:57.562Z,4.25
2019-01-26T10:49:52.160Z,4.19
2019-01-26T10:54:46.754Z,4.38
2019-01-26T10:59:41.396Z,4.60
2019-01-26T11:04:35.984Z,4.79
2019-01-26T11:09:30.574Z,4.98
2019-01-26T11:14:25.163Z,5.04
2019-01-26T11:19:19.812Z,5.02
2019-01-26T11:24:14.463Z,5.17
2019-01-26T11:29:09.218Z,5.47
2019-01-26T11:34:04.356Z,5.60
2019-01-26T11:38:58.949Z,5.45
2019-01-26T11:43:53.520Z,5.42
2019-01-26T11:48:48.292Z,5.57
2019-01-26T11:53:42.928Z,4.97
2019-01-26T11:58:37.591Z,5.14
2019-01-26T12:03:33.798Z,5.26
2019-01-26T12:08:28.388Z,5.15
2019-01-26T12:13:22.967Z,5.21
2019-01-26T12:18:17.639Z,5.22
2019-01-26T12:23:12.440Z,5.30
2019-01-26T12:28:07.089Z,5.28
2019-01-26T12:33:01.653Z,5.11
2019-01-26T12:37:56.264Z,4.94
2019-01-26T12:42:50.839Z,5.13
2019-01-26T12:47:45.499Z,5.22
2019-01-26T12:52:41.678Z,5.22
2019-01-26T12:57:36.258Z,5.15
2019-01-26T13:02:30.828Z,5.32
2019-01-26T13:07:25.416Z,5.69
2019-01-26T13:12:20.178Z,5.82
2019-01-26T13:17:14.907Z,5.81
2019-01-26T13:22:09.680Z,5.81
2019-01-26T13:27:04.334Z,5.89
2019-01-26T13:31:58.934Z,5.68
2019-01-26T13:36:53.514Z,5.69
2019-01-26T13:41:48.087Z,5.87
2019-01-26T13:46:42.674Z,6.04
2019-01-26T13:51:37.251Z,5.74
2019-01-26T13:56:31.831Z,5.48
2019-01-26T14:01:26.504Z,5.21
2019-01-26T14:06:21.096Z,5.29
2019-01-26T14:11:15.694Z,5.53
2019-01-26T14:16:10.285Z,5.64
2019-01-26T14:21:04.996Z,5.60
2019-01-26T14:25:59.580Z,5.81
2019-01-26T14:30:56.010Z,5.81
2019-01-26T14:35:50.601Z,5.80
2019-01-26T14:40:45.167Z,5.61
2019-01-26T14:45:39.752Z,5.60
2019-01-26T14:50:34.399Z,5.63
2019-01-26T14:55:31.710Z,5.63
2019-01-26T15:00:38.196Z,5.63
2019-01-26T15:05:32.927Z,5.75
2019-01-26T15:10:27.651Z,5.84
2019-01-26T15:15:22.959Z,5.87
2019-01-26T15:20:30.996Z,5.92
2019-01-26T15:25:25.785Z,5.84
2019-01-26T15:30:27.473Z,5.82
2019-01-26T15:35:22.154Z,5.75
2019-01-26T15:40:16.982Z,5.77
2019-01-26T15:45:22.021Z,5.81
2019-01-26T15:50:16.823Z,5.69
2019-01-26T15:55:15.961Z,5.63
2019-01-26T16:00:15.202Z,5.58
2019-01-26T16:05:10.589Z,5.57
2019-01-26T16:10:09.402Z,5.55
2019-01-26T16:15:05.827Z,5.56
2019-01-26T16:20:00.421Z,5.47
2019-01-26T16:24:55.020Z,5.55
2019-01-26T16:29:49.642Z,5.44
2019-01-26T16:34:44.242Z,5.39
2019-01-26T16:39:38.836Z,5.24
2019-01-26T16:44:33.434Z,5.24
2019-01-26T16:49:28.046Z,5.22
2019-01-26T16:54:22.640Z,5.17
2019-01-26T16:59:17.212Z,5.21
2019-01-26T17:04:11.815Z,5.13
2019-01-26T17:09:09.581Z,5.10
2019-01-26T17:14:04.382Z,5.06
2019-01-26T17:18:59.034Z,5.07
2019-01-26T17:23:53.624Z,5.01
2019-01-26T17:28:48.228Z,4.93
2019-01-26T17:33:42.815Z,5.01
2019-01-26T17:38:37.401Z,5.01
2019-01-26T17:43:32.001Z,4.97
2019-01-26T17:48:26.623Z,5.02
2019-01-26T17:53:21.232Z,5.00
2019-01-26T17:58:15.824Z,4.93
2019-01-26T18:03:10.427Z,4.83
2019-01-26T18:08:05.182Z,4.81
2019-01-26T18:12:59.869Z,4.76
2019-01-26T18:17:54.472Z,4.65
2019-01-26T18:22:49.211Z,4.45
2019-01-26T18:27:44.009Z,4.35
2019-01-26T18:32:38.708Z,4.15
2019-01-26T18:37:33.323Z,4.07
2019-01-26T18:42:27.919Z,3.95
2019-01-26T18:47:22.503Z,3.86
2019-01-26T18:52:17.107Z,3.87
2019-01-26T18:57:11.730Z,3.75
2019-01-26T19:02:06.532Z,3.51
2019-01-26T19:07:01.159Z,3.43
2019-01-26T19:11:55.766Z,3.29
2019-01-26T19:16:50.425Z,3.16
2019-01-26T19:21:45.018Z,3.14
2019-01-26T19:26:39.620Z,3.09
2019-01-26T19:31:34.303Z,3.05
2019-01-26T19:36:28.879Z,2.99
2019-01-26T19:41:23.462Z,3.00
2019-01-26T19:46:18.194Z,2.96
2019-01-26T19:51:12.868Z,3.02
2019-01-26T19:56:07.601Z,3.08
2019-01-26T20:01:02.336Z,3.13
2019-01-26T20:05:57.089Z,3.10
2019-01-26T20:10:51.702Z,2.96
2019-01-26T20:15:46.318Z,2.77
2019-01-26T20:20:41.637Z,2.67
2019-01-26T20:25:36.750Z,2.65
2019-01-26T20:30:34.573Z,2.68
2019-01-26T20:35:29.367Z,2.80
2019-01-26T20:40:25.086Z,2.87
2019-01-26T20:45:26.691Z,2.87
2019-01-26T20:50:21.507Z,2.94
2019-01-26T20:55:16.173Z,2.88
2019-01-26T21:00:20.843Z,2.82
2019-01-26T21:05:15.503Z,2.73
2019-01-26T21:10:23.621Z,2.68
2019-01-26T21:15:18.431Z,2.77
2019-01-26T21:20:22.238Z,2.78
2019-01-26T21:25:16.969Z,2.79
2019-01-26T21:30:21.755Z,2.76
2019-01-26T21:35:16.418Z,2.78
2019-01-26T21:40:15.757Z,2.80
2019-01-26T21:45:14.067Z,2.71
2019-01-26T21:50:15.675Z,2.61
2019-01-26T21:55:10.973Z,2.48
2019-01-26T22:00:21.743Z,2.54
2019-01-26T22:05:16.397Z,2.55
2019-01-26T22:10:15.587Z,2.70
2019-01-26T22:15:17.091Z,2.76
2019-01-26T22:20:24.865Z,2.77
2019-01-26T22:25:20.655Z,2.94
2019-01-26T22:30:31.134Z,3.24
2019-01-26T22:35:25.864Z,3.71
2019-01-26T22:40:29.963Z,3.86
2019-01-26T22:45:26.070Z,3.94
2019-01-26T22:50:26.684Z,4.21
2019-01-26T22:55:22.794Z,4.28
2019-01-26T23:00:41.343Z,4.27
2019-01-26T23:06:24.110Z,4.24
2019-01-26T23:11:32.278Z,4.06
2019-01-26T23:16:56.801Z,3.97
2019-01-26T23:22:25.973Z,4.12
2019-01-26T23:27:42.936Z,3.98
2019-01-26T23:32:37.530Z,3.94
2019-01-26T23:37:32.140Z,3.95
2019-01-26T23:42:26.760Z,3.78
2019-01-26T23:47:21.331Z,3.80
2019-01-26T23:52:16.006Z,3.74
2019-01-26T23:57:10.596Z,3.79
